Time;durP1;ratioP1;P1;durP2;ratioP2;P2;SDS_P1;SDS_P2;PMS_P1;PMS_P2;Temp;Humidity;BMP_temperature;BMP_pressure;BME280_temperature;BME280_humidity;BME280_pressure;Samples;Min_cycle;Max_cycle;Signal;HPM_P1;HPM_P2
2023/12/15 00:01:52;;;;;;;32.83;10.40;;;3.30;99.90;;;;;;5072512;28;20549;-59
2023/12/15 00:04:18;;;;;;;6.80;3.17;;;3.30;99.90;;;;;;5071898;28;20185;-59
2023/12/15 00:06:43;;;;;;;4.63;2.90;;;3.20;99.90;;;;;;5072482;28;20193;-59
2023/12/15 00:09:09;;;;;;;8.80;3.43;;;3.20;99.90;;;;;;5072038;28;20213;-59
2023/12/15 00:11:34;;;;;;;5.53;2.93;;;3.20;99.90;;;;;;5072247;28;20181;-59
2023/12/15 00:14:00;;;;;;;4.30;2.13;;;3.10;99.90;;;;;;5072188;28;20335;-59
2023/12/15 00:16:25;;;;;;;8.03;2.50;;;3.10;99.90;;;;;;5072158;28;20670;-59
2023/12/15 00:18:51;;;;;;;6.53;2.57;;;3.20;99.90;;;;;;5072190;28;20201;-59
2023/12/15 00:21:16;;;;;;;4.63;2.43;;;3.20;99.90;;;;;;5072270;28;20192;-59
2023/12/15 00:23:42;;;;;;;4.13;2.73;;;3.20;99.90;;;;;;5071883;28;20245;-59
2023/12/15 00:26:07;;;;;;;4.93;3.43;;;3.20;99.90;;;;;;5071744;28;20545;-59
2023/12/15 00:28:32;;;;;;;7.63;2.87;;;3.20;99.90;;;;;;5072049;28;20189;-59
2023/12/15 00:30:58;;;;;;;8.17;3.43;;;3.10;99.90;;;;;;5071168;28;20537;-59
2023/12/15 00:33:23;;;;;;;9.13;3.20;;;3.10;99.90;;;;;;5071502;28;20191;-59
2023/12/15 00:35:49;;;;;;;5.30;2.93;;;3.20;99.90;;;;;;5068310;28;20209;-59
2023/12/15 00:38:15;;;;;;;8.37;3.67;;;3.20;99.90;;;;;;5061870;28;20181;-59
2023/12/15 00:40:40;;;;;;;6.57;3.00;;;3.20;99.90;;;;;;5071495;28;20177;-59
2023/12/15 00:43:06;;;;;;;6.27;3.17;;;3.20;99.90;;;;;;5067853;28;20299;-59
2023/12/15 00:45:31;;;;;;;5.73;3.50;;;3.20;99.90;;;;;;5069069;28;20223;-59
2023/12/15 00:47:57;;;;;;;5.10;2.60;;;3.20;99.90;;;;;;5071492;28;20644;-59
2023/12/15 00:50:22;;;;;;;7.23;2.93;;;3.30;99.90;;;;;;5071129;28;20213;-59
2023/12/15 00:52:48;;;;;;;8.57;3.67;;;3.30;99.90;;;;;;5071356;28;20181;-60
2023/12/15 00:55:13;;;;;;;7.43;2.93;;;3.30;99.90;;;;;;5071526;28;20250;-60
2023/12/15 00:57:39;;;;;;;6.80;3.23;;;3.20;99.90;;;;;;5071587;28;20181;-59
2023/12/15 01:00:05;;;;;;;5.70;3.07;;;3.20;99.90;;;;;;5071075;28;20220;-59
2023/12/15 01:02:31;;;;;;;6.93;2.73;;;3.20;99.90;;;;;;5071450;28;20549;-59
2023/12/15 01:04:56;;;;;;;9.40;3.37;;;3.20;99.90;;;;;;5070465;28;20450;-59
2023/12/15 01:07:23;;;;;;;4.33;2.37;;;3.30;99.90;;;;;;5070865;28;20204;-59
2023/12/15 01:09:48;;;;;;;6.57;3.23;;;3.30;99.90;;;;;;5070668;28;20677;-59
2023/12/15 01:12:14;;;;;;;4.70;2.90;;;3.30;99.90;;;;;;5071235;28;20526;-59
2023/12/15 01:14:39;;;;;;;5.23;2.50;;;3.30;99.90;;;;;;5070655;28;20185;-59
2023/12/15 01:17:05;;;;;;;5.70;3.07;;;3.30;99.90;;;;;;5071170;28;20691;-59
2023/12/15 01:19:32;;;;;;;6.00;2.60;;;3.30;99.90;;;;;;5070674;28;20189;-59
2023/12/15 01:21:57;;;;;;;4.57;2.87;;;3.30;99.90;;;;;;5070966;28;20541;-59
2023/12/15 01:24:23;;;;;;;7.73;3.27;;;3.30;99.90;;;;;;5070723;28;20502;-59
2023/12/15 01:26:48;;;;;;;7.10;3.10;;;3.30;99.90;;;;;;5071098;28;20173;-59
2023/12/15 01:29:13;;;;;;;7.10;3.43;;;3.20;99.90;;;;;;5070412;28;20272;-59
2023/12/15 01:31:39;;;;;;;5.60;3.60;;;3.20;99.90;;;;;;5070978;28;20622;-59
2023/12/15 01:34:04;;;;;;;8.40;3.30;;;3.30;99.90;;;;;;5070488;28;20264;-59
2023/12/15 01:36:30;;;;;;;7.03;2.93;;;3.50;99.90;;;;;;5069017;28;20184;-59
2023/12/15 01:38:56;;;;;;;4.70;2.40;;;3.30;99.90;;;;;;5065918;28;20227;-59
2023/12/15 01:41:21;;;;;;;7.27;2.70;;;3.30;99.90;;;;;;5070625;28;20228;-59
2023/12/15 01:43:47;;;;;;;5.77;2.70;;;3.30;99.90;;;;;;5069966;28;20461;-59
2023/12/15 01:46:12;;;;;;;6.07;3.00;;;3.20;99.90;;;;;;5070655;28;20212;-59
2023/12/15 01:48:39;;;;;;;5.43;2.60;;;3.20;99.90;;;;;;5070560;28;20513;-59
2023/12/15 01:51:05;;;;;;;5.47;2.57;;;3.10;99.90;;;;;;5070618;28;20205;-59
2023/12/15 01:53:30;;;;;;;6.33;2.53;;;3.10;99.90;;;;;;5069243;28;20565;-59
2023/12/15 01:55:56;;;;;;;4.00;1.90;;;3.10;99.90;;;;;;5070403;28;20197;-59
2023/12/15 01:58:21;;;;;;;4.67;2.40;;;3.10;99.90;;;;;;5070297;28;20220;-59
2023/12/15 02:00:47;;;;;;;3.73;1.77;;;3.10;99.90;;;;;;5070016;28;20237;-59
2023/12/15 02:03:13;;;;;;;4.30;2.03;;;3.10;99.90;;;;;;5066410;28;20201;-59
2023/12/15 02:05:38;;;;;;;4.43;2.33;;;3.00;99.90;;;;;;5069572;28;20622;-59
2023/12/15 02:08:04;;;;;;;5.80;2.40;;;3.00;99.90;;;;;;5069852;28;20181;-59
2023/12/15 02:10:29;;;;;;;5.23;2.90;;;3.10;99.90;;;;;;5070385;28;20192;-59
2023/12/15 02:12:55;;;;;;;3.00;2.20;;;3.10;99.90;;;;;;5069795;28;20185;-59
2023/12/15 02:15:20;;;;;;;3.93;2.40;;;3.10;99.90;;;;;;5070517;28;20657;-59
2023/12/15 02:17:45;;;;;;;6.67;2.93;;;3.10;99.90;;;;;;5070349;28;20185;-59
2023/12/15 02:20:11;;;;;;;5.37;3.23;;;3.10;99.90;;;;;;5070213;28;20181;-59
2023/12/15 02:22:36;;;;;;;6.47;2.70;;;3.10;99.90;;;;;;5069569;28;20223;-59
2023/12/15 02:25:02;;;;;;;13.60;3.67;;;3.10;99.90;;;;;;5070606;28;20231;-59
2023/12/15 02:27:27;;;;;;;5.97;3.20;;;3.20;99.90;;;;;;5070290;28;20208;-59
2023/12/15 02:29:53;;;;;;;4.60;3.20;;;3.20;99.90;;;;;;5070484;28;20238;-59
2023/12/15 02:32:18;;;;;;;10.43;3.93;;;3.20;99.90;;;;;;5070073;28;20203;-59
2023/12/15 02:34:44;;;;;;;6.20;2.90;;;3.20;99.90;;;;;;5069210;28;20193;-59
2023/12/15 02:37:09;;;;;;;5.93;2.60;;;3.20;99.90;;;;;;5056061;28;20201;-59
2023/12/15 02:39:38;;;;;;;5.40;3.80;;;3.30;99.90;;;;;;5069602;28;20181;-59
2023/12/15 02:42:04;;;;;;;5.67;2.80;;;3.30;99.90;;;;;;5069686;28;20245;-59
2023/12/15 02:44:30;;;;;;;4.67;2.70;;;3.30;99.90;;;;;;5070236;28;20461;-59
2023/12/15 02:46:55;;;;;;;6.43;4.10;;;3.30;99.90;;;;;;5069508;28;20853;-59
2023/12/15 02:49:21;;;;;;;9.90;4.50;;;3.30;99.90;;;;;;5070062;28;20193;-59
2023/12/15 02:51:46;;;;;;;5.90;3.00;;;3.30;99.90;;;;;;5069547;28;20213;-59
2023/12/15 02:54:12;;;;;;;6.53;3.40;;;3.30;99.90;;;;;;5069506;28;20244;-59
2023/12/15 02:56:37;;;;;;;8.00;3.77;;;3.30;99.90;;;;;;5069622;28;20234;-59
2023/12/15 02:59:03;;;;;;;9.40;4.90;;;3.30;99.90;;;;;;5069929;28;20561;-59
2023/12/15 03:01:28;;;;;;;9.83;4.37;;;3.30;99.90;;;;;;5069776;28;20216;-59
2023/12/15 03:03:54;;;;;;;10.30;4.30;;;3.30;99.90;;;;;;5069952;28;20213;-59
2023/12/15 03:06:20;;;;;;;11.20;4.27;;;3.40;99.90;;;;;;5060551;28;20194;-59
2023/12/15 03:08:45;;;;;;;7.97;4.00;;;3.40;99.90;;;;;;5071765;28;20192;-58
2023/12/15 03:11:11;;;;;;;6.30;3.60;;;3.30;99.90;;;;;;5073194;28;20191;-59
2023/12/15 03:13:38;;;;;;;5.83;3.47;;;3.30;99.90;;;;;;5072552;28;20189;-59
2023/12/15 03:16:13;;;;;;;8.10;4.27;;;3.30;99.90;;;;;;5073433;28;20212;-59
2023/12/15 03:18:39;;;;;;;7.57;3.60;;;3.40;99.90;;;;;;5072699;28;20434;-59
2023/12/15 03:21:04;;;;;;;10.37;4.13;;;3.40;99.90;;;;;;5072972;28;20461;-58
2023/12/15 03:23:30;;;;;;;9.57;3.73;;;3.40;99.90;;;;;;5072639;28;20224;-58
2023/12/15 03:25:56;;;;;;;7.33;3.73;;;3.40;99.90;;;;;;5073357;28;20212;-59
2023/12/15 03:28:22;;;;;;;4.73;3.13;;;3.40;99.90;;;;;;5067769;28;20276;-59
2023/12/15 03:30:47;;;;;;;5.67;2.87;;;3.40;99.90;;;;;;5073290;28;21136;-59
2023/12/15 03:33:13;;;;;;;10.67;3.70;;;3.30;99.90;;;;;;5072479;28;20196;-59
2023/12/15 03:35:38;;;;;;;6.50;3.70;;;3.30;99.90;;;;;;5068213;28;20212;-59
2023/12/15 03:38:07;;;;;;;7.13;4.00;;;3.30;99.90;;;;;;5071431;28;20189;-59
2023/12/15 03:40:32;;;;;;;9.63;3.80;;;3.30;99.90;;;;;;5072954;28;20234;-59
2023/12/15 03:42:58;;;;;;;18.63;3.83;;;3.30;99.90;;;;;;5072471;28;20952;-59
2023/12/15 03:45:25;;;;;;;9.33;3.80;;;3.30;99.90;;;;;;5073083;28;20771;-59
2023/12/15 03:47:51;;;;;;;9.20;4.47;;;3.30;99.90;;;;;;5072687;28;20538;-59
2023/12/15 03:50:16;;;;;;;5.90;3.27;;;3.30;99.90;;;;;;5072601;28;20439;-61
2023/12/15 03:52:42;;;;;;;7.17;3.90;;;3.20;99.90;;;;;;5070980;28;20223;-59
2023/12/15 03:55:07;;;;;;;6.00;3.40;;;3.20;99.90;;;;;;5072347;28;20191;-59
2023/12/15 03:57:33;;;;;;;5.30;3.50;;;3.30;99.90;;;;;;5072353;28;20501;-60
2023/12/15 03:59:58;;;;;;;4.47;2.50;;;3.20;99.90;;;;;;5072665;28;20566;-59
2023/12/15 04:02:24;;;;;;;8.67;4.30;;;3.20;99.90;;;;;;5072558;28;20213;-60
2023/12/15 04:04:49;;;;;;;5.47;3.03;;;3.20;99.90;;;;;;5072310;28;20240;-61
2023/12/15 04:07:15;;;;;;;6.40;3.17;;;3.20;99.90;;;;;;5071524;28;20185;-59
2023/12/15 04:09:40;;;;;;;13.33;4.03;;;3.30;99.90;;;;;;5071868;28;20526;-59
2023/12/15 04:12:06;;;;;;;9.83;3.00;;;3.40;99.90;;;;;;5069208;28;20192;-59
2023/12/15 04:14:33;;;;;;;11.87;3.63;;;3.20;99.90;;;;;;5058220;28;20178;-59
2023/12/15 04:16:58;;;;;;;6.10;3.07;;;3.30;99.90;;;;;;5066391;28;20904;-59
2023/12/15 04:19:24;;;;;;;9.00;3.67;;;3.30;99.90;;;;;;5066506;28;20415;-59
2023/12/15 04:21:49;;;;;;;4.93;2.57;;;3.30;99.90;;;;;;5062539;28;20222;-59
2023/12/15 04:24:15;;;;;;;5.80;3.60;;;3.30;99.90;;;;;;5071260;28;20205;-59
2023/12/15 04:26:40;;;;;;;4.57;2.70;;;3.30;99.90;;;;;;5072389;28;20199;-59
2023/12/15 04:29:06;;;;;;;5.47;3.03;;;3.30;99.90;;;;;;5071696;28;20302;-59
2023/12/15 04:31:31;;;;;;;7.43;3.53;;;3.40;99.90;;;;;;5071893;28;20181;-59
2023/12/15 04:33:57;;;;;;;6.73;3.43;;;3.30;99.90;;;;;;5071620;28;20184;-58
2023/12/15 04:36:22;;;;;;;6.20;3.87;;;3.30;99.90;;;;;;5071912;28;20596;-58
2023/12/15 04:38:48;;;;;;;5.87;3.30;;;3.30;99.90;;;;;;5071035;28;20197;-59
2023/12/15 04:41:22;;;;;;;5.33;3.23;;;3.30;99.90;;;;;;5071675;28;20236;-59
2023/12/15 04:43:47;;;;;;;5.97;3.33;;;3.30;99.90;;;;;;5071656;28;20203;-59
2023/12/15 04:46:24;;;;;;;9.47;3.43;;;3.30;99.90;;;;;;5071877;28;20419;-59
2023/12/15 04:48:50;;;;;;;5.43;2.90;;;3.30;99.90;;;;;;5071634;28;20181;-59
2023/12/15 04:51:16;;;;;;;4.97;2.60;;;3.30;99.90;;;;;;5071338;28;20838;-59
2023/12/15 04:53:41;;;;;;;6.40;3.87;;;3.20;99.90;;;;;;5070558;28;20439;-59
2023/12/15 04:56:07;;;;;;;5.17;2.57;;;3.20;99.90;;;;;;5071386;28;20259;-59
2023/12/15 04:58:35;;;;;;;14.60;3.50;;;3.20;99.90;;;;;;5071254;28;20189;-59
2023/12/15 05:01:01;;;;;;;5.90;3.20;;;3.20;99.90;;;;;;5071367;28;20507;-59
2023/12/15 05:03:27;;;;;;;10.63;3.30;;;3.20;99.90;;;;;;5071167;28;20538;-59
2023/12/15 05:05:52;;;;;;;5.83;2.73;;;3.20;99.90;;;;;;5071078;28;20301;-59
2023/12/15 05:08:18;;;;;;;9.17;3.57;;;3.30;99.90;;;;;;5069735;28;21020;-59
2023/12/15 05:10:43;;;;;;;7.10;3.30;;;3.20;99.90;;;;;;5063320;28;20234;-59
2023/12/15 05:13:08;;;;;;;6.87;3.80;;;3.20;99.90;;;;;;5071068;28;20733;-59
2023/12/15 05:15:34;;;;;;;5.27;2.77;;;3.20;99.90;;;;;;5071497;28;20193;-59
2023/12/15 05:17:59;;;;;;;8.07;3.70;;;3.20;99.90;;;;;;5070887;28;20656;-59
2023/12/15 05:20:25;;;;;;;7.23;3.70;;;3.30;99.90;;;;;;5070868;28;20185;-59
2023/12/15 05:22:50;;;;;;;7.67;4.13;;;3.20;99.90;;;;;;5070346;28;20216;-59
2023/12/15 05:25:16;;;;;;;5.27;2.80;;;3.20;99.90;;;;;;5070990;28;20289;-59
2023/12/15 05:27:41;;;;;;;9.33;4.30;;;3.30;99.90;;;;;;5070933;28;20193;-59
2023/12/15 05:30:09;;;;;;;13.07;3.80;;;3.20;99.90;;;;;;5070599;28;20189;-59
2023/12/15 05:32:34;;;;;;;4.63;2.53;;;3.20;99.90;;;;;;5070710;28;20181;-59
2023/12/15 05:35:00;;;;;;;7.00;4.20;;;3.30;99.90;;;;;;5071015;28;21098;-59
2023/12/15 05:37:25;;;;;;;6.13;2.47;;;3.30;99.90;;;;;;5056672;28;20217;-59
2023/12/15 05:39:51;;;;;;;6.23;3.63;;;3.30;99.90;;;;;;5070555;28;20728;-59
2023/12/15 05:42:16;;;;;;;6.33;3.83;;;3.30;99.90;;;;;;5070582;28;20233;-59
2023/12/15 05:44:42;;;;;;;6.17;3.50;;;3.30;99.90;;;;;;5070743;28;20745;-58
2023/12/15 05:47:07;;;;;;;6.90;4.00;;;3.30;99.90;;;;;;5070747;28;20461;-59
2023/12/15 05:49:38;;;;;;;10.03;4.30;;;3.30;99.90;;;;;;5070729;28;20646;-59
2023/12/15 05:52:03;;;;;;;4.20;2.60;;;3.20;99.90;;;;;;5069823;28;20185;-59
2023/12/15 05:54:29;;;;;;;7.83;4.47;;;3.30;99.90;;;;;;5070432;28;20768;-59
2023/12/15 05:56:54;;;;;;;16.33;4.33;;;3.30;99.90;;;;;;5070387;28;20279;-59
2023/12/15 05:59:20;;;;;;;9.03;3.90;;;3.30;99.90;;;;;;5070650;28;20558;-60
2023/12/15 06:01:45;;;;;;;7.23;4.30;;;3.30;99.90;;;;;;5070837;28;20181;-60
2023/12/15 06:04:11;;;;;;;6.90;3.57;;;3.30;99.90;;;;;;5070763;28;20619;-60
2023/12/15 06:06:36;;;;;;;8.40;3.60;;;3.30;99.90;;;;;;5070478;28;20185;-60
2023/12/15 06:09:02;;;;;;;7.60;3.77;;;3.40;99.90;;;;;;5070343;28;20184;-60
2023/12/15 06:11:27;;;;;;;7.37;4.23;;;3.30;99.90;;;;;;5070454;28;20189;-59
2023/12/15 06:13:53;;;;;;;8.37;3.93;;;3.30;99.90;;;;;;5070426;28;20191;-60
2023/12/15 06:16:20;;;;;;;7.70;4.17;;;3.30;99.90;;;;;;5070374;28;20197;-60
2023/12/15 06:18:49;;;;;;;6.43;3.20;;;3.30;99.90;;;;;;5070513;28;20186;-60
2023/12/15 06:21:22;;;;;;;9.20;4.03;;;3.30;99.90;;;;;;5070380;28;20420;-60
2023/12/15 06:23:48;;;;;;;7.00;4.23;;;3.30;99.90;;;;;;5070067;28;20490;-60
2023/12/15 06:26:26;;;;;;;9.17;3.80;;;3.30;99.90;;;;;;5052361;28;20459;-60
2023/12/15 06:28:55;;;;;;;10.03;4.40;;;3.30;99.90;;;;;;5070426;28;20571;-60
2023/12/15 06:31:22;;;;;;;6.37;3.63;;;3.30;99.90;;;;;;5070109;28;20415;-60
2023/12/15 06:33:47;;;;;;;10.30;4.33;;;3.30;99.90;;;;;;5070285;28;20419;-60
2023/12/15 06:36:13;;;;;;;8.50;4.10;;;3.30;99.90;;;;;;5063569;28;20431;-60
2023/12/15 06:38:42;;;;;;;8.23;4.40;;;3.30;99.90;;;;;;5062884;28;20267;-59
2023/12/15 06:41:09;;;;;;;10.80;4.00;;;3.40;99.90;;;;;;5070852;28;20342;-60
2023/12/15 06:43:38;;;;;;;10.07;4.33;;;3.40;99.90;;;;;;5073850;28;20498;-60
2023/12/15 06:46:04;;;;;;;9.13;3.40;;;3.30;99.90;;;;;;5074109;28;20462;-60
2023/12/15 06:48:29;;;;;;;8.00;3.70;;;3.30;99.90;;;;;;5073869;28;20455;-60
2023/12/15 06:50:55;;;;;;;9.50;4.00;;;3.30;99.90;;;;;;5073652;28;20181;-60
2023/12/15 06:53:21;;;;;;;9.10;5.13;;;3.30;99.90;;;;;;5073223;28;20697;-60
2023/12/15 06:55:46;;;;;;;11.90;5.60;;;3.30;99.90;;;;;;5073919;28;20181;-60
2023/12/15 06:58:12;;;;;;;7.03;4.03;;;3.30;99.90;;;;;;5071567;28;20200;-59
2023/12/15 07:00:39;;;;;;;7.97;4.33;;;3.30;99.90;;;;;;5073634;28;20230;-60
2023/12/15 07:03:04;;;;;;;9.03;4.50;;;3.30;99.90;;;;;;5073485;28;20197;-60
2023/12/15 07:05:30;;;;;;;6.67;3.43;;;3.30;99.90;;;;;;5073707;28;20421;-59
2023/12/15 07:07:56;;;;;;;8.60;3.70;;;3.40;99.90;;;;;;5072738;28;20191;-60
2023/12/15 07:10:22;;;;;;;8.77;4.33;;;3.40;99.90;;;;;;5073413;28;20177;-60
2023/12/15 07:12:47;;;;;;;11.90;4.80;;;3.30;99.90;;;;;;5073341;28;20480;-60
2023/12/15 07:15:13;;;;;;;8.70;4.37;;;3.40;99.90;;;;;;5073743;28;20204;-61
2023/12/15 07:17:38;;;;;;;9.70;4.63;;;3.40;99.90;;;;;;5073203;28;20189;-59
2023/12/15 07:20:05;;;;;;;13.80;5.53;;;3.40;99.90;;;;;;5073006;28;20185;-59
2023/12/15 07:22:30;;;;;;;7.57;4.23;;;3.40;99.90;;;;;;5072298;28;20207;-60
2023/12/15 07:24:56;;;;;;;9.80;4.60;;;3.40;99.90;;;;;;5058959;28;20961;-59
2023/12/15 07:27:21;;;;;;;8.30;5.07;;;3.40;99.90;;;;;;5058669;28;20188;-61
2023/12/15 07:29:47;;;;;;;10.13;4.70;;;3.40;99.90;;;;;;5069733;28;20181;-61
2023/12/15 07:32:12;;;;;;;9.87;4.30;;;3.40;99.90;;;;;;5072135;28;20196;-61
2023/12/15 07:34:38;;;;;;;10.90;5.70;;;3.40;99.90;;;;;;5072724;28;20180;-61
2023/12/15 07:37:03;;;;;;;15.63;5.50;;;3.50;99.90;;;;;;5066774;28;20189;-61
2023/12/15 07:39:29;;;;;;;11.13;5.43;;;3.50;99.90;;;;;;5065711;28;20196;-61
2023/12/15 07:41:55;;;;;;;10.13;5.63;;;3.50;99.90;;;;;;5066927;28;20229;-59
2023/12/15 07:44:21;;;;;;;9.97;5.10;;;3.50;99.90;;;;;;5065730;28;20254;-59
2023/12/15 07:46:46;;;;;;;13.10;6.20;;;3.60;99.90;;;;;;5071992;28;20420;-61
2023/12/15 07:49:13;;;;;;;11.40;5.77;;;3.60;99.90;;;;;;5072111;28;20223;-61
2023/12/15 07:51:39;;;;;;;10.63;6.17;;;3.60;99.90;;;;;;5071009;28;20566;-61
2023/12/15 07:54:04;;;;;;;14.03;5.53;;;3.60;99.90;;;;;;5072218;28;20444;-61
2023/12/15 07:56:30;;;;;;;12.80;7.23;;;3.60;99.90;;;;;;5072153;28;20568;-61
2023/12/15 07:58:56;;;;;;;11.57;6.00;;;3.50;99.90;;;;;;5071612;28;20184;-61
2023/12/15 08:01:23;;;;;;;12.40;6.57;;;3.60;99.90;;;;;;5071770;28;20188;-61
2023/12/15 08:03:50;;;;;;;13.13;6.33;;;3.60;99.90;;;;;;5071491;28;20463;-61
2023/12/15 08:06:17;;;;;;;14.23;6.43;;;3.60;99.90;;;;;;5072194;28;21193;-61
2023/12/15 08:08:43;;;;;;;14.23;7.30;;;3.60;99.90;;;;;;5067263;28;20535;-61
2023/12/15 08:11:10;;;;;;;9.33;6.40;;;3.60;99.90;;;;;;5071151;28;20423;-59
2023/12/15 08:13:36;;;;;;;15.73;6.00;;;3.60;99.90;;;;;;5070820;28;20747;-59
2023/12/15 08:16:03;;;;;;;19.93;8.50;;;3.60;99.90;;;;;;5071569;28;20461;-60
2023/12/15 08:18:29;;;;;;;18.80;6.60;;;3.60;99.90;;;;;;5060049;28;20431;-60
2023/12/15 08:20:54;;;;;;;13.20;6.70;;;3.60;99.90;;;;;;5070813;28;20950;-61
2023/12/15 08:23:20;;;;;;;16.50;7.83;;;3.70;99.90;;;;;;5070158;28;21047;-61
2023/12/15 08:25:45;;;;;;;15.70;7.53;;;3.60;99.90;;;;;;5071703;28;20195;-61
2023/12/15 08:28:11;;;;;;;14.70;6.13;;;3.60;99.90;;;;;;5071399;28;20231;-61
2023/12/15 08:30:38;;;;;;;15.20;7.53;;;3.60;99.90;;;;;;5071154;28;20223;-61
2023/12/15 08:33:03;;;;;;;16.10;6.90;;;3.60;99.90;;;;;;5069151;28;20192;-61
2023/12/15 08:35:29;;;;;;;16.30;6.50;;;3.60;99.90;;;;;;5064379;28;20509;-60
2023/12/15 08:37:56;;;;;;;14.43;6.40;;;3.60;99.90;;;;;;5070595;28;20177;-61
2023/12/15 08:40:22;;;;;;;18.57;7.80;;;3.70;99.90;;;;;;5066887;28;20455;-60
2023/12/15 08:42:48;;;;;;;14.47;7.70;;;3.80;99.90;;;;;;5070467;28;20471;-61
2023/12/15 08:45:13;;;;;;;16.97;8.33;;;3.80;99.90;;;;;;5071472;28;20416;-59
2023/12/15 08:47:39;;;;;;;12.60;7.20;;;3.80;99.90;;;;;;5076290;28;20177;-59
2023/12/15 08:50:05;;;;;;;14.03;7.33;;;3.80;99.90;;;;;;5060876;28;20308;-59
2023/12/15 08:52:30;;;;;;;15.47;6.87;;;3.70;99.90;;;;;;5069294;28;20188;-59
2023/12/15 08:54:56;;;;;;;12.87;7.20;;;3.70;99.90;;;;;;5069138;28;20863;-59
2023/12/15 08:57:22;;;;;;;17.30;8.30;;;3.70;99.90;;;;;;5069398;28;20184;-59
2023/12/15 08:59:47;;;;;;;15.20;8.30;;;3.70;99.90;;;;;;5065085;28;20218;-59
2023/12/15 09:02:13;;;;;;;13.80;6.60;;;3.70;99.90;;;;;;5069780;28;20641;-59
2023/12/15 09:04:38;;;;;;;15.57;7.77;;;3.80;99.90;;;;;;5068371;28;20177;-59
2023/12/15 09:07:07;;;;;;;16.43;6.83;;;3.80;99.90;;;;;;5067240;28;20185;-57
2023/12/15 09:09:34;;;;;;;15.03;8.73;;;3.90;99.90;;;;;;5066104;28;20187;-57
2023/12/15 09:11:59;;;;;;;16.03;7.93;;;3.90;99.90;;;;;;5070125;28;20438;-58
2023/12/15 09:14:25;;;;;;;12.60;6.80;;;3.90;99.90;;;;;;5069987;28;20981;-58
2023/12/15 09:16:50;;;;;;;14.30;8.03;;;3.90;99.90;;;;;;5070010;28;20203;-59
2023/12/15 09:19:16;;;;;;;18.17;7.77;;;4.00;99.90;;;;;;5068271;28;20186;-60
2023/12/15 09:21:42;;;;;;;15.83;7.30;;;4.00;99.90;;;;;;5070098;28;20484;-60
2023/12/15 09:24:07;;;;;;;14.47;7.13;;;4.40;99.90;;;;;;5069684;28;20200;-61
2023/12/15 09:26:33;;;;;;;17.93;7.63;;;4.00;99.90;;;;;;5069900;28;20177;-62
2023/12/15 09:28:59;;;;;;;17.50;6.97;;;4.00;99.90;;;;;;5070088;28;20189;-60
2023/12/15 09:31:24;;;;;;;15.67;6.90;;;4.40;99.90;;;;;;5063470;28;20185;-57
2023/12/15 09:33:49;;;;;;;13.13;6.63;;;4.10;99.90;;;;;;5059889;28;20184;-58
2023/12/15 09:36:15;;;;;;;13.50;7.03;;;4.10;99.90;;;;;;5067459;28;20540;-58
2023/12/15 09:38:40;;;;;;;14.93;7.10;;;4.10;99.90;;;;;;5060990;28;20753;-58
2023/12/15 09:41:07;;;;;;;19.83;8.37;;;4.20;99.90;;;;;;5070027;28;20693;-59
2023/12/15 09:43:32;;;;;;;10.40;5.83;;;4.20;99.90;;;;;;5069906;28;20197;-59
2023/12/15 09:45:58;;;;;;;18.87;7.57;;;4.20;99.90;;;;;;5065704;28;20430;-58
2023/12/15 09:48:27;;;;;;;17.27;6.97;;;4.30;99.90;;;;;;5068804;28;20263;-58
2023/12/15 09:50:56;;;;;;;17.77;7.23;;;4.30;99.90;;;;;;5067677;28;20423;-59
2023/12/15 09:53:22;;;;;;;16.93;6.47;;;4.40;99.90;;;;;;5067624;28;20430;-59
2023/12/15 09:55:49;;;;;;;10.87;6.40;;;4.40;99.90;;;;;;5070086;28;20438;-58
2023/12/15 09:58:15;;;;;;;12.13;6.53;;;4.40;99.90;;;;;;5066776;28;20216;-58
2023/12/15 10:00:40;;;;;;;12.87;6.50;;;4.50;99.90;;;;;;5069313;28;20458;-58
2023/12/15 10:03:06;;;;;;;14.33;6.43;;;4.50;99.90;;;;;;5063341;28;20201;-58
2023/12/15 10:05:31;;;;;;;12.17;5.83;;;4.60;99.90;;;;;;5066936;28;20181;-57
2023/12/15 10:07:57;;;;;;;13.83;7.30;;;4.60;99.90;;;;;;5065663;28;21056;-59
2023/12/15 10:10:26;;;;;;;13.63;4.73;;;4.70;99.90;;;;;;5068406;28;20661;-59
2023/12/15 10:12:54;;;;;;;9.87;4.63;;;4.80;99.90;;;;;;5067652;28;20173;-59
2023/12/15 10:15:20;;;;;;;11.50;6.23;;;4.90;99.90;;;;;;5066140;28;20838;-61
2023/12/15 10:17:46;;;;;;;18.73;5.30;;;5.00;99.90;;;;;;5067038;28;20480;-59
2023/12/15 10:20:12;;;;;;;15.30;6.93;;;5.10;99.90;;;;;;5072551;28;20181;-59
2023/12/15 10:22:39;;;;;;;12.27;6.03;;;5.00;99.90;;;;;;5068259;28;20458;-60
2023/12/15 10:25:20;;;;;;;12.57;5.80;;;5.10;99.90;;;;;;5072237;28;21417;-59
2023/12/15 10:27:47;;;;;;;12.10;5.60;;;5.00;99.90;;;;;;5072001;28;20438;-59
2023/12/15 10:30:13;;;;;;;9.70;5.43;;;5.10;99.90;;;;;;5075619;28;20419;-60
2023/12/15 10:32:38;;;;;;;12.00;6.37;;;5.10;99.90;;;;;;5072315;28;20759;-59
2023/12/15 10:35:06;;;;;;;10.87;5.37;;;5.10;99.90;;;;;;5072116;28;20193;-59
2023/12/15 10:37:32;;;;;;;12.00;5.37;;;5.10;99.90;;;;;;5070953;28;20181;-58
2023/12/15 10:39:59;;;;;;;10.77;5.93;;;5.10;99.90;;;;;;5071693;28;20549;-58
2023/12/15 10:42:26;;;;;;;10.03;5.13;;;5.10;99.90;;;;;;5070692;28;20235;-59
2023/12/15 10:44:51;;;;;;;17.77;6.27;;;5.20;99.90;;;;;;5072008;28;20434;-59
2023/12/15 10:47:18;;;;;;;14.63;5.70;;;5.30;99.90;;;;;;5071838;28;20423;-59
2023/12/15 10:49:46;;;;;;;8.83;4.33;;;5.40;99.90;;;;;;5072267;28;20234;-59
2023/12/15 10:52:15;;;;;;;9.33;5.00;;;5.40;99.90;;;;;;5068562;28;20498;-58
2023/12/15 10:54:42;;;;;;;12.30;4.87;;;5.40;99.90;;;;;;5070173;28;20427;-58
2023/12/15 10:57:12;;;;;;;12.53;5.10;;;5.30;99.90;;;;;;5071745;28;20628;-59
2023/12/15 10:59:39;;;;;;;14.63;4.37;;;5.20;99.90;;;;;;5074015;28;20427;-59
2023/12/15 11:02:07;;;;;;;12.17;4.97;;;5.20;99.90;;;;;;5071662;28;20415;-59
2023/12/15 11:04:33;;;;;;;12.80;5.30;;;5.20;99.90;;;;;;5071733;28;20511;-59
2023/12/15 11:06:59;;;;;;;9.93;5.07;;;5.20;99.90;;;;;;5072088;28;20899;-58
2023/12/15 11:09:33;;;;;;;7.90;5.13;;;5.20;99.90;;;;;;5068876;28;20191;-58
2023/12/15 11:12:50;;;;;;;10.63;4.93;;;5.20;99.90;;;;;;5071003;28;20188;-59
2023/12/15 11:15:22;;;;;;;9.17;5.63;;;5.30;99.90;;;;;;5045534;28;20437;-59
2023/12/15 11:17:53;;;;;;;12.57;5.17;;;5.30;99.90;;;;;;5072944;28;20438;-59
2023/12/15 11:20:18;;;;;;;8.83;5.37;;;5.40;99.90;;;;;;5073272;28;20477;-59
2023/12/15 11:22:48;;;;;;;8.00;4.60;;;5.70;99.90;;;;;;5072122;28;20451;-59
2023/12/15 11:25:19;;;;;;;9.10;4.63;;;5.90;99.90;;;;;;5064690;28;20177;-59
2023/12/15 11:28:09;;;;;;;5.40;3.60;;;5.60;99.90;;;;;;5069418;28;20415;-59
2023/12/15 11:30:41;;;;;;;6.57;3.80;;;5.50;99.90;;;;;;5065826;28;20411;-58
2023/12/15 11:33:29;;;;;;;8.50;4.30;;;5.50;99.90;;;;;;5070404;28;20431;-58
2023/12/15 11:36:06;;;;;;;8.80;3.27;;;5.50;99.90;;;;;;5067721;28;20424;-59
2023/12/15 11:38:32;;;;;;;7.40;3.47;;;5.50;99.90;;;;;;5071420;28;20434;-59
2023/12/15 11:40:59;;;;;;;6.80;3.53;;;5.60;99.90;;;;;;5072224;28;20471;-59
2023/12/15 11:43:25;;;;;;;7.40;4.03;;;5.60;99.90;;;;;;5069312;28;20455;-59
2023/12/15 11:45:52;;;;;;;6.13;3.00;;;5.50;99.90;;;;;;5071957;28;20918;-59
2023/12/15 11:48:18;;;;;;;7.63;3.60;;;5.80;99.90;;;;;;5071993;28;20188;-59
2023/12/15 11:50:44;;;;;;;6.53;2.80;;;6.20;99.90;;;;;;5072409;28;20439;-59
2023/12/15 11:53:12;;;;;;;11.40;3.97;;;5.80;99.90;;;;;;5071390;28;20192;-59
2023/12/15 11:55:39;;;;;;;5.23;3.60;;;6.00;99.90;;;;;;5071275;28;20431;-59
2023/12/15 11:58:06;;;;;;;8.67;3.40;;;5.90;99.90;;;;;;5071568;28;20469;-59
2023/12/15 12:00:32;;;;;;;7.60;3.20;;;5.80;99.90;;;;;;5067165;28;20549;-59
2023/12/15 12:02:58;;;;;;;8.07;3.97;;;5.80;99.90;;;;;;5061175;28;20466;-59
2023/12/15 12:05:23;;;;;;;10.40;4.93;;;5.90;99.90;;;;;;5071684;28;20422;-59
2023/12/15 12:07:49;;;;;;;6.90;3.80;;;5.90;99.90;;;;;;5070475;28;20181;-59
2023/12/15 12:10:15;;;;;;;8.13;3.70;;;5.90;99.90;;;;;;5070696;28;20271;-59
2023/12/15 12:12:40;;;;;;;8.00;4.03;;;5.80;99.90;;;;;;5071436;28;20185;-58
2023/12/15 12:15:09;;;;;;;7.13;3.90;;;5.70;99.90;;;;;;5071741;28;20430;-58
2023/12/15 12:17:39;;;;;;;5.93;3.00;;;5.70;99.90;;;;;;5071003;28;20525;-59
2023/12/15 12:20:10;;;;;;;8.13;2.60;;;5.80;99.90;;;;;;5071574;28;20457;-59
2023/12/15 12:22:39;;;;;;;3.90;2.60;;;5.80;99.90;;;;;;5066324;28;20439;-58
2023/12/15 12:25:06;;;;;;;8.57;3.07;;;5.80;99.90;;;;;;5071494;28;20419;-58
2023/12/15 12:27:35;;;;;;;6.93;2.40;;;6.00;99.90;;;;;;5070848;28;20481;-58
2023/12/15 12:30:01;;;;;;;4.70;2.73;;;5.90;99.90;;;;;;5060570;28;20419;-58
2023/12/15 12:32:27;;;;;;;8.63;3.50;;;6.20;99.90;;;;;;5069476;28;20781;-59
2023/12/15 12:34:53;;;;;;;6.73;2.90;;;6.00;99.90;;;;;;5067063;28;20419;-59
2023/12/15 12:37:18;;;;;;;5.63;3.53;;;6.20;99.90;;;;;;5066179;28;20185;-59
2023/12/15 12:39:45;;;;;;;7.17;3.13;;;6.50;99.90;;;;;;5071204;28;20423;-59
2023/12/15 12:42:11;;;;;;;8.50;4.27;;;6.50;99.90;;;;;;5070518;28;20732;-59
2023/12/15 12:44:36;;;;;;;4.20;2.60;;;6.40;99.90;;;;;;5071371;28;20463;-59
2023/12/15 12:47:02;;;;;;;4.53;1.80;;;6.40;99.90;;;;;;5070168;28;20183;-59
2023/12/15 12:49:28;;;;;;;3.13;2.03;;;6.40;99.90;;;;;;5071192;28;20217;-59